createdAt,value
2018-07-28T00:01:02.783Z,66.96
2018-07-28T00:03:31.446Z,65.44
2018-07-28T00:06:00.229Z,65.42
2018-07-28T00:08:29.017Z,65.96
2018-07-28T00:10:57.770Z,68.29
2018-07-28T00:13:26.555Z,66.80
2018-07-28T00:15:55.265Z,67.38
2018-07-28T00:18:23.957Z,67.72
2018-07-28T00:20:52.728Z,68.38
2018-07-28T00:23:21.437Z,67.99
2018-07-28T00:25:55.403Z,68.09
2018-07-28T00:28:24.112Z,68.33
2018-07-28T00:30:52.819Z,68.44
2018-07-28T00:33:21.536Z,68.72
2018-07-28T00:35:50.447Z,67.96
2018-07-28T00:38:19.185Z,68.38
2018-07-28T00:40:47.920Z,69.11
2018-07-28T00:43:16.743Z,68.79
2018-07-28T00:45:45.481Z,69.05
2018-07-28T00:48:14.092Z,69.63
2018-07-28T00:50:42.708Z,69.52
2018-07-28T00:53:11.521Z,69.92
2018-07-28T00:55:40.198Z,71.51
2018-07-28T00:58:09.021Z,71.82
2018-07-28T01:00:37.780Z,71.00
2018-07-28T01:03:06.420Z,70.45
2018-07-28T01:05:35.005Z,70.92
2018-07-28T01:08:03.886Z,71.00
2018-07-28T01:10:32.606Z,72.11
2018-07-28T01:13:01.294Z,73.19
2018-07-28T01:15:29.998Z,72.64
2018-07-28T01:17:58.663Z,72.57
2018-07-28T01:20:27.398Z,71.75
2018-07-28T01:22:56.063Z,72.08
2018-07-28T01:25:24.783Z,72.41
2018-07-28T01:27:53.442Z,71.41
2018-07-28T01:30:28.467Z,71.84
2018-07-28T01:32:57.502Z,71.43
2018-07-28T01:35:26.174Z,72.37
2018-07-28T01:37:55.131Z,73.86
2018-07-28T01:40:23.756Z,72.69
2018-07-28T01:42:52.506Z,73.59
2018-07-28T01:45:21.220Z,72.43
2018-07-28T01:47:49.863Z,73.79
2018-07-28T01:50:18.627Z,73.49
2018-07-28T01:52:47.349Z,73.53
2018-07-28T01:55:15.998Z,73.12
2018-07-28T01:57:44.662Z,73.13
2018-07-28T02:00:13.783Z,73.46
2018-07-28T02:02:42.654Z,74.17
2018-07-28T02:05:11.458Z,73.27
2018-07-28T02:07:40.227Z,73.67
2018-07-28T02:10:09.453Z,73.19
2018-07-28T02:12:38.216Z,73.73
2018-07-28T02:15:07.688Z,73.57
2018-07-28T02:17:36.449Z,73.72
2018-07-28T02:20:06.185Z,73.88
2018-07-28T02:22:34.855Z,75.54
2018-07-28T02:25:03.619Z,74.39
2018-07-28T02:27:32.372Z,74.26
2018-07-28T02:30:01.092Z,74.73
2018-07-28T02:32:29.695Z,75.32
2018-07-28T02:34:58.352Z,74.48
2018-07-28T02:37:27.034Z,75.42
2018-07-28T02:39:55.705Z,75.51
2018-07-28T02:42:24.371Z,75.55
2018-07-28T02:44:53.083Z,77.44
2018-07-28T02:47:21.846Z,75.79
2018-07-28T02:49:50.503Z,75.87
2018-07-28T02:52:19.292Z,76.22
2018-07-28T02:54:47.978Z,76.20
2018-07-28T02:57:16.662Z,77.01
2018-07-28T02:59:45.306Z,76.56
2018-07-28T03:02:14.033Z,76.54
2018-07-28T03:04:42.705Z,76.79
2018-07-28T03:07:11.358Z,76.36
2018-07-28T03:09:40.064Z,76.14
2018-07-28T03:12:08.732Z,76.21
2018-07-28T03:14:37.518Z,76.77
2018-07-28T03:17:06.389Z,76.58
2018-07-28T03:19:35.192Z,76.33
2018-07-28T03:22:04.156Z,77.02
2018-07-28T03:24:32.982Z,75.59
2018-07-28T03:27:01.681Z,76.97
2018-07-28T03:29:30.361Z,75.54
2018-07-28T03:31:59.225Z,75.68
2018-07-28T03:34:27.871Z,75.23
2018-07-28T03:36:56.623Z,75.61
2018-07-28T03:39:25.335Z,75.08
2018-07-28T03:41:54.029Z,75.99
2018-07-28T03:47:53.670Z,75.00
2018-07-28T03:50:22.253Z,75.39
2018-07-28T03:52:50.886Z,75.12
2018-07-28T03:55:19.740Z,74.82
2018-07-28T03:57:48.442Z,74.74
2018-07-28T04:00:17.210Z,75.56
2018-07-28T04:02:46.036Z,74.87
2018-07-28T04:05:14.744Z,74.72
2018-07-28T04:07:43.450Z,75.04
2018-07-28T04:10:12.247Z,75.07
2018-07-28T04:12:41.044Z,74.60
2018-07-28T04:15:12.267Z,74.78
2018-07-28T04:17:59.326Z,74.81
2018-07-28T04:20:28.278Z,74.40
2018-07-28T04:22:57.015Z,75.04
2018-07-28T04:25:25.892Z,74.95
2018-07-28T04:27:54.642Z,75.49
2018-07-28T04:30:23.376Z,75.31
2018-07-28T04:32:52.303Z,74.99
2018-07-28T04:35:21.007Z,75.31
2018-07-28T04:37:49.612Z,76.83
2018-07-28T04:40:18.291Z,76.42
2018-07-28T04:42:47.028Z,76.49
2018-07-28T04:45:15.776Z,76.04
2018-07-28T04:47:44.430Z,76.09
2018-07-28T04:50:13.202Z,75.85
2018-07-28T04:52:41.831Z,75.89
2018-07-28T04:55:10.679Z,76.11
2018-07-28T04:57:39.339Z,77.21
2018-07-28T05:00:08.177Z,77.34
2018-07-28T05:02:36.792Z,76.95
2018-07-28T05:05:05.587Z,77.13
2018-07-28T05:07:34.372Z,77.29
2018-07-28T05:10:03.266Z,76.36
2018-07-28T05:12:31.972Z,77.09
2018-07-28T05:15:00.680Z,77.18
2018-07-28T05:17:29.480Z,76.94
2018-07-28T05:19:58.140Z,76.44
2018-07-28T05:22:26.796Z,76.17
2018-07-28T05:24:55.929Z,76.64
2018-07-28T05:27:24.659Z,76.48
2018-07-28T05:29:53.465Z,77.31
2018-07-28T05:32:22.103Z,77.11
2018-07-28T05:34:50.853Z,76.82
2018-07-28T05:37:19.629Z,77.48
2018-07-28T05:39:48.259Z,76.85
2018-07-28T05:42:17.043Z,77.25
2018-07-28T05:44:45.705Z,76.63
2018-07-28T05:47:14.384Z,76.51
2018-07-28T05:49:43.116Z,75.56
2018-07-28T05:52:11.848Z,75.51
2018-07-28T05:54:40.578Z,74.51
2018-07-28T05:57:09.250Z,74.33
2018-07-28T05:59:38.134Z,75.59
2018-07-28T06:02:07.509Z,74.90
2018-07-28T06:04:36.228Z,74.43
2018-07-28T06:07:05.110Z,74.01
2018-07-28T06:09:33.860Z,74.18
2018-07-28T06:12:02.529Z,73.16
2018-07-28T06:14:31.200Z,73.77
2018-07-28T06:17:00.179Z,73.18
2018-07-28T06:19:28.866Z,73.48
2018-07-28T06:21:59.769Z,73.27
2018-07-28T06:24:28.638Z,73.71
2018-07-28T06:26:57.403Z,73.20
2018-07-28T06:29:26.078Z,72.87
2018-07-28T06:31:54.784Z,73.53
2018-07-28T06:34:23.496Z,72.79
2018-07-28T06:36:52.161Z,73.33
2018-07-28T06:39:20.851Z,73.09
2018-07-28T06:41:49.626Z,72.74
2018-07-28T06:44:18.359Z,73.18
2018-07-28T06:46:47.031Z,73.68
2018-07-28T06:49:15.887Z,73.39
2018-07-28T06:51:44.601Z,73.28
2018-07-28T06:54:13.256Z,72.78
2018-07-28T06:56:42.145Z,73.16
2018-07-28T06:59:10.812Z,73.26
2018-07-28T07:01:39.532Z,72.84
2018-07-28T07:04:08.474Z,73.42
2018-07-28T07:06:37.178Z,73.02
2018-07-28T07:09:08.551Z,73.11
2018-07-28T07:11:37.232Z,73.82
2018-07-28T07:14:06.468Z,73.83
2018-07-28T07:16:35.502Z,74.14
2018-07-28T07:19:04.291Z,74.50
2018-07-28T07:21:33.039Z,74.37
2018-07-28T07:24:01.733Z,74.57
2018-07-28T07:26:30.387Z,74.71
2018-07-28T07:28:59.046Z,73.74
2018-07-28T07:31:27.924Z,73.39
2018-07-28T07:33:56.634Z,73.17
2018-07-28T07:36:25.332Z,72.96
2018-07-28T07:38:54.012Z,73.03
2018-07-28T07:41:22.662Z,73.29
2018-07-28T07:43:51.315Z,72.79
2018-07-28T07:46:20.095Z,72.84
2018-07-28T07:48:48.823Z,72.89
2018-07-28T07:51:17.591Z,72.86
2018-07-28T07:53:46.356Z,72.93
2018-07-28T07:56:15.100Z,72.91
2018-07-28T07:58:43.782Z,72.56
2018-07-28T08:01:12.472Z,72.68
2018-07-28T08:03:41.146Z,72.87
2018-07-28T08:06:16.424Z,71.90
2018-07-28T08:08:45.257Z,72.05
2018-07-28T08:11:13.942Z,72.21
2018-07-28T08:13:42.664Z,71.74
2018-07-28T08:16:11.315Z,71.60
2018-07-28T08:18:40.013Z,70.84
2018-07-28T08:21:08.890Z,71.81
2018-07-28T08:23:37.533Z,71.64
2018-07-28T08:26:06.716Z,71.23
2018-07-28T08:28:35.501Z,70.87
2018-07-28T08:31:04.231Z,69.67
2018-07-28T08:33:32.878Z,70.18
2018-07-28T08:36:01.627Z,69.24
2018-07-28T08:38:30.283Z,69.11
2018-07-28T08:40:58.965Z,68.13
2018-07-28T08:43:27.778Z,67.22
2018-07-28T08:45:56.457Z,67.49
2018-07-28T08:48:25.144Z,65.76
2018-07-28T08:50:53.942Z,66.72
2018-07-28T08:53:22.611Z,65.73
2018-07-28T08:55:51.320Z,62.99
2018-07-28T08:58:20.002Z,62.96
2018-07-28T09:00:48.760Z,63.93
2018-07-28T09:03:17.396Z,64.14
2018-07-28T09:05:46.142Z,64.87
2018-07-28T09:08:14.848Z,64.10
2018-07-28T09:10:43.530Z,62.60
2018-07-28T09:13:12.190Z,59.53
2018-07-28T09:15:40.864Z,60.87
2018-07-28T09:18:09.835Z,59.51
2018-07-28T09:20:38.589Z,60.53
2018-07-28T09:23:07.376Z,59.59
2018-07-28T09:25:36.169Z,59.65
2018-07-28T09:28:05.049Z,60.82
2018-07-28T09:30:33.675Z,59.96
2018-07-28T09:33:02.262Z,59.21
2018-07-28T09:35:31.004Z,60.51
2018-07-28T09:37:59.703Z,62.25
2018-07-28T09:40:28.587Z,61.40
2018-07-28T09:42:57.397Z,61.80
2018-07-28T09:45:26.090Z,59.70
2018-07-28T09:47:55.005Z,59.90
2018-07-28T09:50:23.799Z,59.70
2018-07-28T09:52:52.526Z,59.83
2018-07-28T09:55:21.430Z,60.64
2018-07-28T09:57:51.126Z,60.81
2018-07-28T10:00:24.995Z,58.74
2018-07-28T10:02:53.764Z,58.71
2018-07-28T10:05:22.502Z,59.38
2018-07-28T10:07:51.278Z,59.85
2018-07-28T10:10:20.092Z,60.71
2018-07-28T10:12:48.793Z,60.20
2018-07-28T10:15:17.392Z,61.00
2018-07-28T10:17:46.084Z,61.15
2018-07-28T10:20:14.921Z,60.32
2018-07-28T10:22:43.566Z,61.72
2018-07-28T10:25:12.216Z,62.88
2018-07-28T10:27:40.864Z,63.55
2018-07-28T10:30:10.055Z,62.99
2018-07-28T10:32:39.796Z,61.42
2018-07-28T10:35:10.153Z,60.95
2018-07-28T10:37:39.100Z,60.97
2018-07-28T10:40:08.641Z,60.78
2018-07-28T10:42:37.726Z,61.35
2018-07-28T10:45:06.538Z,60.84
2018-07-28T10:47:35.287Z,60.93
2018-07-28T10:50:04.064Z,61.95
2018-07-28T10:52:32.762Z,61.72
2018-07-28T10:55:01.403Z,62.19
2018-07-28T10:57:30.076Z,62.35
2018-07-28T10:59:58.971Z,61.35
2018-07-28T11:02:27.575Z,62.05
2018-07-28T11:04:56.227Z,60.68
2018-07-28T11:07:24.877Z,60.35
2018-07-28T11:09:53.693Z,60.82
2018-07-28T11:12:22.361Z,60.52
2018-07-28T11:14:50.994Z,59.63
2018-07-28T11:17:19.772Z,60.15
2018-07-28T11:19:48.480Z,60.15
2018-07-28T11:22:17.165Z,59.50
2018-07-28T11:24:45.983Z,60.20
2018-07-28T11:27:14.583Z,60.73
2018-07-28T11:29:43.174Z,61.33
2018-07-28T11:32:22.847Z,60.77
2018-07-28T11:35:02.576Z,61.42
2018-07-28T11:37:53.956Z,60.10
2018-07-28T11:42:39.597Z,59.96
2018-07-28T11:45:14.495Z,60.85
2018-07-28T11:47:43.152Z,61.39
2018-07-28T11:50:12.256Z,61.38
2018-07-28T11:52:41.299Z,61.62
2018-07-28T11:55:09.942Z,60.88
2018-07-28T11:57:38.654Z,60.00
2018-07-28T12:00:10.976Z,58.90
2018-07-28T12:02:39.946Z,57.93
2018-07-28T12:05:08.938Z,57.81
2018-07-28T12:07:37.847Z,58.21
2018-07-28T12:10:07.893Z,55.39
2018-07-28T12:12:36.717Z,56.79
2018-07-28T12:15:05.986Z,57.61
2018-07-28T12:17:34.700Z,57.73
2018-07-28T12:20:03.571Z,57.16
2018-07-28T12:22:32.284Z,56.09
2018-07-28T12:25:00.942Z,57.46
2018-07-28T12:27:29.607Z,56.76
2018-07-28T12:29:58.262Z,56.05
2018-07-28T12:32:26.934Z,55.58
2018-07-28T12:34:55.668Z,56.35
2018-07-28T12:37:24.365Z,54.71
2018-07-28T12:39:53.081Z,54.39
2018-07-28T12:42:21.802Z,54.05
2018-07-28T12:44:50.412Z,53.24
2018-07-28T12:47:19.365Z,54.31
2018-07-28T12:49:48.028Z,54.72
2018-07-28T12:52:16.703Z,55.42
2018-07-28T12:54:45.389Z,55.88
2018-07-28T12:57:13.998Z,55.57
2018-07-28T12:59:42.682Z,54.95
2018-07-28T13:02:11.738Z,54.07
2018-07-28T13:04:40.520Z,53.88
2018-07-28T13:07:09.196Z,54.61
2018-07-28T13:09:37.898Z,53.69
2018-07-28T13:12:06.559Z,53.17
2018-07-28T13:14:35.256Z,52.02
2018-07-28T13:17:03.921Z,52.67
2018-07-28T13:19:32.770Z,50.72
2018-07-28T13:22:01.437Z,49.48
2018-07-28T13:24:30.197Z,49.45
2018-07-28T13:26:58.988Z,48.12
2018-07-28T13:29:27.625Z,47.83
2018-07-28T13:31:56.284Z,43.64
2018-07-28T13:34:31.151Z,41.79
2018-07-28T13:36:59.957Z,41.83
2018-07-28T13:39:28.545Z,40.75
2018-07-28T13:41:57.192Z,40.37
2018-07-28T13:44:25.944Z,40.77
2018-07-28T13:46:54.702Z,40.67
2018-07-28T13:49:23.395Z,43.21
2018-07-28T13:51:52.020Z,44.56
2018-07-28T13:54:20.816Z,46.33
2018-07-28T13:56:49.542Z,47.79
2018-07-28T13:59:18.373Z,47.69
2018-07-28T14:01:47.100Z,48.78
2018-07-28T14:04:15.780Z,49.40
2018-07-28T14:06:44.582Z,49.09
2018-07-28T14:09:13.352Z,49.83
2018-07-28T14:11:42.144Z,49.59
2018-07-28T14:14:11.216Z,51.04
2018-07-28T14:16:39.884Z,50.58
2018-07-28T14:19:08.790Z,49.77
2018-07-28T14:21:37.530Z,50.65
2018-07-28T14:24:06.518Z,48.63
2018-07-28T14:26:35.336Z,48.62
2018-07-28T14:29:03.965Z,48.23
2018-07-28T14:31:32.701Z,47.33
2018-07-28T14:34:01.406Z,46.04
2018-07-28T14:36:30.045Z,45.12
2018-07-28T14:38:58.906Z,43.74
2018-07-28T14:41:27.520Z,42.76
2018-07-28T14:43:56.473Z,40.37
2018-07-28T14:46:25.279Z,38.67
2018-07-28T14:48:54.099Z,38.74
2018-07-28T14:51:22.737Z,37.54
2018-07-28T14:53:51.446Z,39.24
2018-07-28T14:56:20.131Z,39.26
2018-07-28T14:58:48.743Z,38.12
2018-07-28T15:01:17.373Z,37.27
2018-07-28T15:03:46.017Z,37.99
2018-07-28T15:06:15.820Z,38.05
2018-07-28T15:08:44.389Z,38.53
2018-07-28T15:11:13.046Z,40.21
2018-07-28T15:13:41.919Z,40.24
2018-07-28T15:16:11.077Z,39.94
2018-07-28T15:18:39.879Z,40.24
2018-07-28T15:21:08.722Z,39.94
2018-07-28T15:23:37.451Z,41.90
2018-07-28T15:26:06.243Z,41.95
2018-07-28T15:28:34.982Z,41.60
2018-07-28T15:31:03.755Z,42.92
2018-07-28T15:33:32.367Z,45.55
2018-07-28T15:36:01.150Z,47.67
2018-07-28T15:38:30.010Z,50.06
2018-07-28T15:40:58.677Z,51.54
2018-07-28T15:43:27.406Z,52.64
2018-07-28T15:45:56.012Z,55.67
2018-07-28T15:48:24.751Z,56.36
2018-07-28T15:50:53.474Z,55.91
2018-07-28T15:53:22.246Z,57.06
2018-07-28T15:55:50.969Z,57.49
2018-07-28T15:58:19.839Z,58.27
2018-07-28T16:00:48.504Z,59.48
2018-07-28T16:03:17.257Z,58.56
2018-07-28T16:05:45.983Z,57.83
2018-07-28T16:08:14.746Z,58.25
2018-07-28T16:10:43.421Z,58.68
2018-07-28T16:13:12.233Z,59.46
2018-07-28T16:15:40.820Z,59.52
2018-07-28T16:18:09.480Z,59.40
2018-07-28T16:20:38.197Z,60.37
2018-07-28T16:23:07.211Z,59.49
2018-07-28T16:25:36.432Z,60.90
2018-07-28T16:28:05.116Z,60.44
2018-07-28T16:30:33.741Z,61.22
2018-07-28T16:33:02.657Z,61.15
2018-07-28T16:35:31.261Z,61.96
2018-07-28T16:38:00.070Z,61.46
2018-07-28T16:40:28.793Z,61.42
2018-07-28T16:42:57.480Z,61.27
2018-07-28T16:45:26.293Z,61.49
2018-07-28T16:47:55.210Z,61.34
2018-07-28T16:50:23.911Z,62.52
2018-07-28T16:52:52.586Z,62.35
2018-07-28T16:55:21.881Z,62.24
2018-07-28T16:57:50.615Z,62.28
2018-07-28T17:00:19.319Z,62.11
2018-07-28T17:02:47.953Z,61.85
2018-07-28T17:05:16.675Z,62.63
2018-07-28T17:07:45.366Z,61.89
2018-07-28T17:10:14.388Z,62.43
2018-07-28T17:12:43.019Z,62.73
2018-07-28T17:15:12.441Z,63.51
2018-07-28T17:17:41.203Z,63.17
2018-07-28T17:20:09.986Z,63.14
2018-07-28T17:22:39.246Z,63.07
2018-07-28T17:25:08.165Z,63.18
2018-07-28T17:27:36.939Z,62.87
2018-07-28T17:30:05.732Z,63.12
2018-07-28T17:32:34.423Z,63.70
2018-07-28T17:35:03.227Z,63.38
2018-07-28T17:37:31.975Z,63.91
2018-07-28T17:44:02.413Z,63.62
2018-07-28T17:46:31.315Z,64.07
2018-07-28T17:52:00.472Z,64.30
2018-07-28T17:54:29.143Z,64.17
2018-07-28T17:56:57.810Z,64.04
2018-07-28T17:59:26.571Z,64.25
2018-07-28T18:01:55.286Z,64.43
2018-07-28T18:04:24.063Z,64.64
2018-07-28T18:06:52.895Z,64.40
2018-07-28T18:09:21.559Z,64.85
2018-07-28T18:11:50.574Z,64.88
2018-07-28T18:14:19.330Z,64.68
2018-07-28T18:16:48.565Z,64.37
2018-07-28T18:19:17.246Z,64.81
2018-07-28T18:21:45.924Z,65.00
2018-07-28T18:24:14.751Z,65.08
2018-07-28T18:26:43.542Z,64.90
2018-07-28T18:29:12.319Z,64.54
2018-07-28T18:31:41.315Z,65.01
2018-07-28T18:34:10.015Z,65.25
2018-07-28T18:36:38.757Z,65.09
2018-07-28T18:39:09.117Z,64.74
2018-07-28T18:41:37.978Z,64.98
2018-07-28T18:44:06.895Z,64.75
2018-07-28T18:46:35.939Z,64.34
2018-07-28T18:49:04.568Z,64.69
2018-07-28T18:51:33.253Z,64.62
2018-07-28T18:54:02.396Z,64.30
2018-07-28T18:56:31.122Z,64.28
2018-07-28T18:58:59.760Z,64.44
2018-07-28T19:01:28.524Z,64.33
2018-07-28T19:03:57.194Z,64.65
2018-07-28T19:06:25.831Z,64.92
2018-07-28T19:09:00.214Z,64.93
2018-07-28T19:11:28.906Z,64.94
2018-07-28T19:14:02.803Z,64.54
2018-07-28T19:16:31.559Z,65.22
2018-07-28T19:19:05.373Z,64.83
2018-07-28T19:21:34.368Z,65.13
2018-07-28T19:24:04.334Z,64.80
2018-07-28T19:26:33.217Z,64.93
2018-07-28T19:29:07.028Z,64.87
2018-07-28T19:31:35.672Z,64.88
2018-07-28T19:34:04.428Z,64.81
2018-07-28T19:36:38.392Z,65.31
2018-07-28T19:39:08.834Z,65.05
2018-07-28T19:41:42.587Z,65.49
2018-07-28T19:44:12.463Z,65.93
2018-07-28T19:46:41.107Z,65.49
2018-07-28T19:49:09.932Z,65.42
2018-07-28T19:51:38.980Z,65.91
2018-07-28T19:54:07.891Z,66.21
2018-07-28T19:56:36.660Z,65.90
2018-07-28T19:59:05.382Z,65.96
2018-07-28T20:01:34.052Z,66.03
2018-07-28T20:04:02.814Z,65.65
2018-07-28T20:06:31.645Z,66.05
2018-07-28T20:09:00.366Z,66.28
2018-07-28T20:11:29.118Z,66.20
2018-07-28T20:13:57.776Z,66.19
2018-07-28T20:16:26.535Z,66.15
2018-07-28T20:18:55.237Z,66.54
2018-07-28T20:21:23.986Z,66.59
2018-07-28T20:23:52.690Z,66.37
2018-07-28T20:26:21.554Z,65.84
2018-07-28T20:28:50.380Z,66.22
2018-07-28T20:31:19.718Z,65.81
2018-07-28T20:33:49.663Z,66.17
2018-07-28T20:36:18.561Z,65.94
2018-07-28T20:38:47.357Z,66.40
2018-07-28T20:41:16.024Z,66.27
2018-07-28T20:43:44.754Z,66.05
2018-07-28T20:46:13.710Z,66.37
2018-07-28T20:48:42.380Z,66.29
2018-07-28T20:51:11.210Z,66.46
2018-07-28T20:53:39.774Z,66.08
2018-07-28T20:56:09.330Z,65.95
2018-07-28T20:58:39.003Z,66.13
2018-07-28T21:01:08.473Z,65.99
2018-07-28T21:03:37.409Z,66.12
2018-07-28T21:06:07.262Z,66.29
2018-07-28T21:08:37.515Z,66.40
2018-07-28T21:11:06.738Z,66.57
2018-07-28T21:13:35.484Z,66.40
2018-07-28T21:16:05.085Z,66.89
2018-07-28T21:18:33.792Z,66.65
2018-07-28T21:21:02.576Z,66.85
2018-07-28T21:23:31.976Z,66.74
2018-07-28T21:26:00.753Z,66.19
2018-07-28T21:28:29.388Z,66.67
2018-07-28T21:30:58.127Z,66.65
2018-07-28T21:33:27.768Z,66.22
2018-07-28T21:35:56.357Z,66.71
2018-07-28T21:38:25.058Z,66.17
2018-07-28T21:40:53.881Z,66.53
2018-07-28T21:43:22.500Z,66.78
2018-07-28T21:45:51.257Z,67.04
2018-07-28T21:48:19.992Z,66.51
2018-07-28T21:50:49.503Z,66.49
2018-07-28T21:53:19.502Z,66.59
2018-07-28T21:55:48.124Z,66.72
2018-07-28T21:58:17.025Z,67.16
2018-07-28T22:00:55.753Z,67.05
2018-07-28T22:03:24.612Z,67.21
2018-07-28T22:05:54.045Z,67.24
2018-07-28T22:08:23.482Z,67.60
2018-07-28T22:10:53.047Z,67.02
2018-07-28T22:13:21.716Z,67.26
2018-07-28T22:15:51.100Z,67.51
2018-07-28T22:18:20.170Z,67.35
2018-07-28T22:20:50.912Z,67.38
2018-07-28T22:23:19.668Z,67.57
2018-07-28T22:25:48.326Z,68.10
2018-07-28T22:28:17.317Z,68.12
2018-07-28T22:30:46.046Z,68.28
2018-07-28T22:33:14.758Z,68.68
2018-07-28T22:35:43.548Z,69.16
2018-07-28T22:38:12.204Z,69.11
2018-07-28T22:40:40.836Z,69.52
2018-07-28T22:43:09.507Z,70.52
2018-07-28T22:45:38.111Z,70.04
2018-07-28T22:48:06.788Z,69.95
2018-07-28T22:50:35.501Z,70.18
2018-07-28T22:53:04.197Z,70.01
2018-07-28T22:55:32.938Z,71.15
2018-07-28T22:58:01.759Z,70.69
2018-07-28T23:00:30.550Z,70.50
2018-07-28T23:02:59.538Z,70.74
2018-07-28T23:05:28.266Z,71.04
2018-07-28T23:07:56.881Z,71.15
2018-07-28T23:10:25.635Z,71.81
2018-07-28T23:12:54.328Z,72.48
2018-07-28T23:15:22.971Z,72.04
2018-07-28T23:17:51.792Z,72.29
2018-07-28T23:20:20.504Z,72.37
2018-07-28T23:22:49.121Z,72.56
2018-07-28T23:25:17.857Z,72.94
2018-07-28T23:27:46.580Z,73.02
2018-07-28T23:30:15.320Z,73.48
2018-07-28T23:32:44.241Z,73.35
2018-07-28T23:35:13.067Z,73.36
2018-07-28T23:37:41.666Z,73.40
2018-07-28T23:40:10.332Z,73.30
2018-07-28T23:42:39.059Z,73.58
2018-07-28T23:45:07.812Z,73.55
2018-07-28T23:47:36.594Z,73.95
2018-07-28T23:50:05.403Z,73.91
2018-07-28T23:52:34.270Z,73.81
2018-07-28T23:55:03.094Z,73.51
2018-07-28T23:57:31.813Z,74.39
